createdAt,value
2018-07-28T00:00:23.842Z,71.08
2018-07-28T00:01:23.798Z,71.28
2018-07-28T00:02:23.751Z,70.89
2018-07-28T00:03:23.706Z,71.56
2018-07-28T00:04:23.644Z,71.37
2018-07-28T00:05:23.629Z,71.56
2018-07-28T00:06:23.581Z,71.95
2018-07-28T00:07:23.529Z,71.76
2018-07-28T00:08:23.462Z,71.95
2018-07-28T00:09:23.420Z,72.05
2018-07-28T00:10:23.402Z,72.05
2018-07-28T00:11:23.357Z,72.14
2018-07-28T00:12:23.308Z,72.33
2018-07-28T00:13:23.257Z,72.14
2018-07-28T00:14:23.234Z,72.63
2018-07-28T00:15:23.175Z,72.43
2018-07-28T00:16:23.097Z,72.81
2018-07-28T00:17:23.071Z,72.63
2018-07-28T00:18:23.036Z,72.91
2018-07-28T00:19:22.981Z,72.63
2018-07-28T00:20:22.946Z,72.72
2018-07-28T00:21:22.882Z,72.91
2018-07-28T00:22:22.831Z,73.01
2018-07-28T00:23:22.813Z,73.01
2018-07-28T00:24:22.764Z,73.01
2018-07-28T00:25:22.692Z,72.72
2018-07-28T00:26:22.669Z,73.01
2018-07-28T00:27:22.636Z,73.30
2018-07-28T00:28:22.578Z,73.39
2018-07-28T00:29:22.535Z,73.10
2018-07-28T00:30:22.496Z,73.20
2018-07-28T00:31:22.448Z,72.91
2018-07-28T00:32:22.385Z,73.68
2018-07-28T00:33:22.358Z,73.58
2018-07-28T00:34:22.305Z,74.13
2018-07-28T00:35:22.254Z,74.32
2018-07-28T00:36:22.223Z,74.41
2018-07-28T00:37:22.173Z,74.90
2018-07-28T00:38:22.124Z,74.90
2018-07-28T00:39:22.087Z,74.32
2018-07-28T00:40:22.043Z,74.80
2018-07-28T00:41:21.996Z,74.51
2018-07-28T00:42:21.949Z,74.90
2018-07-28T00:43:21.893Z,74.80
2018-07-28T00:44:21.852Z,74.99
2018-07-28T00:45:21.812Z,75.67
2018-07-28T00:46:21.769Z,75.76
2018-07-28T00:47:21.716Z,75.28
2018-07-28T00:48:21.670Z,75.28
2018-07-28T00:49:21.632Z,75.13
2018-07-28T00:50:21.583Z,74.71
2018-07-28T00:51:21.544Z,74.45
2018-07-28T00:52:21.485Z,74.80
2018-07-28T00:53:21.438Z,75.28
2018-07-28T00:54:21.374Z,75.19
2018-07-28T00:55:21.347Z,75.19
2018-07-28T00:56:21.316Z,75.48
2018-07-28T00:57:21.261Z,75.28
2018-07-28T00:58:21.220Z,75.67
2018-07-28T00:59:21.174Z,75.57
2018-07-28T01:00:21.142Z,75.19
2018-07-28T01:01:21.076Z,75.28
2018-07-28T01:02:21.041Z,75.76
2018-07-28T01:03:20.995Z,75.96
2018-07-28T01:04:20.939Z,75.86
2018-07-28T01:05:20.900Z,76.25
2018-07-28T01:06:20.854Z,75.86
2018-07-28T01:07:20.803Z,76.25
2018-07-28T01:08:20.764Z,76.63
2018-07-28T01:09:20.727Z,76.44
2018-07-28T01:10:20.674Z,76.44
2018-07-28T01:11:20.620Z,76.44
2018-07-28T01:12:20.584Z,76.15
2018-07-28T01:13:20.538Z,76.25
2018-07-28T01:14:20.494Z,76.34
2018-07-28T01:15:20.426Z,75.86
2018-07-28T01:16:20.402Z,75.67
2018-07-28T01:17:20.359Z,75.67
2018-07-28T01:18:20.312Z,75.48
2018-07-28T01:19:20.258Z,75.76
2018-07-28T01:20:20.214Z,75.67
2018-07-28T01:21:20.167Z,76.34
2018-07-28T01:22:20.120Z,76.34
2018-07-28T01:23:20.082Z,76.63
2018-07-28T01:24:20.036Z,76.63
2018-07-28T01:25:19.990Z,77.01
2018-07-28T01:26:19.948Z,77.40
2018-07-28T01:27:19.898Z,77.01
2018-07-28T01:28:19.848Z,77.21
2018-07-28T01:29:19.817Z,76.92
2018-07-28T01:30:19.757Z,77.21
2018-07-28T01:31:19.706Z,77.11
2018-07-28T01:32:19.666Z,76.73
2018-07-28T01:33:19.625Z,77.56
2018-07-28T01:34:19.589Z,77.46
2018-07-28T01:35:19.530Z,78.13
2018-07-28T01:36:19.494Z,77.65
2018-07-28T01:37:19.444Z,77.75
2018-07-28T01:38:19.417Z,78.23
2018-07-28T01:39:19.358Z,78.03
2018-07-28T01:40:19.311Z,78.17
2018-07-28T01:41:19.263Z,77.11
2018-07-28T01:42:19.222Z,77.21
2018-07-28T01:43:19.160Z,77.59
2018-07-28T01:44:19.123Z,78.17
2018-07-28T01:45:19.084Z,77.50
2018-07-28T01:46:19.049Z,77.78
2018-07-28T01:47:18.972Z,77.78
2018-07-28T01:48:18.964Z,77.69
2018-07-28T01:49:18.947Z,77.59
2018-07-28T01:50:18.854Z,77.31
2018-07-28T01:51:18.813Z,78.08
2018-07-28T01:52:18.769Z,77.59
2018-07-28T01:53:18.724Z,78.27
2018-07-28T01:54:18.670Z,78.03
2018-07-28T01:55:18.643Z,77.84
2018-07-28T01:56:18.577Z,78.33
2018-07-28T01:57:18.542Z,78.33
2018-07-28T01:58:18.496Z,77.94
2018-07-28T01:59:18.447Z,77.94
2018-07-28T02:00:18.386Z,78.13
2018-07-28T02:01:18.354Z,79.10
2018-07-28T02:02:18.309Z,78.90
2018-07-28T02:03:18.261Z,79.10
2018-07-28T02:04:18.210Z,79.19
2018-07-28T02:05:18.189Z,79.48
2018-07-28T02:06:18.127Z,79.67
2018-07-28T02:07:18.079Z,79.96
2018-07-28T02:08:18.038Z,79.58
2018-07-28T02:09:17.981Z,79.28
2018-07-28T02:10:17.951Z,79.19
2018-07-28T02:11:17.892Z,78.81
2018-07-28T02:12:17.852Z,78.90
2018-07-28T02:13:17.810Z,79.19
2018-07-28T02:14:17.766Z,79.10
2018-07-28T02:15:17.730Z,79.58
2018-07-28T02:16:17.664Z,79.48
2018-07-28T02:17:17.621Z,79.67
2018-07-28T02:18:17.595Z,80.44
2018-07-28T02:19:17.534Z,80.25
2018-07-28T02:20:17.489Z,80.21
2018-07-28T02:21:17.447Z,79.96
2018-07-28T02:22:17.399Z,80.35
2018-07-28T02:23:17.354Z,80.44
2018-07-28T02:24:17.306Z,80.60
2018-07-28T02:25:17.253Z,80.83
2018-07-28T02:26:17.218Z,80.88
2018-07-28T02:27:17.173Z,80.88
2018-07-28T02:28:17.120Z,81.37
2018-07-28T02:29:17.078Z,81.37
2018-07-28T02:30:17.025Z,81.07
2018-07-28T02:31:16.989Z,81.65
2018-07-28T02:32:16.937Z,81.37
2018-07-28T02:33:16.887Z,81.07
2018-07-28T02:34:16.847Z,80.60
2018-07-28T02:35:16.815Z,80.83
2018-07-28T02:36:16.740Z,80.88
2018-07-28T02:37:16.726Z,80.92
2018-07-28T02:38:16.669Z,81.02
2018-07-28T02:39:16.620Z,81.37
2018-07-28T02:40:16.577Z,81.75
2018-07-28T02:41:16.514Z,81.75
2018-07-28T02:42:16.486Z,82.04
2018-07-28T02:43:16.432Z,82.04
2018-07-28T02:44:16.409Z,82.32
2018-07-28T02:45:16.346Z,82.14
2018-07-28T02:46:16.292Z,82.04
2018-07-28T02:47:16.244Z,81.94
2018-07-28T02:48:16.210Z,81.84
2018-07-28T02:49:16.159Z,81.94
2018-07-28T02:50:16.110Z,82.32
2018-07-28T02:51:16.070Z,82.61
2018-07-28T02:52:16.029Z,82.61
2018-07-28T02:53:15.984Z,82.32
2018-07-28T02:54:15.944Z,81.94
2018-07-28T02:55:15.885Z,82.52
2018-07-28T02:56:15.847Z,82.42
2018-07-28T02:57:15.794Z,82.23
2018-07-28T02:58:15.737Z,82.04
2018-07-28T02:59:15.706Z,82.71
2018-07-28T03:00:15.679Z,82.71
2018-07-28T03:01:15.615Z,82.04
2018-07-28T03:02:15.575Z,82.42
2018-07-28T03:03:15.513Z,82.32
2018-07-28T03:04:15.481Z,82.04
2018-07-28T03:05:15.425Z,82.61
2018-07-28T03:06:15.397Z,82.42
2018-07-28T03:07:15.344Z,82.90
2018-07-28T03:08:15.295Z,83.15
2018-07-28T03:09:15.247Z,83.44
2018-07-28T03:10:15.199Z,83.39
2018-07-28T03:11:15.153Z,83.15
2018-07-28T03:12:15.104Z,83.15
2018-07-28T03:13:15.056Z,83.19
2018-07-28T03:14:15.021Z,83.09
2018-07-28T03:15:14.981Z,82.90
2018-07-28T03:16:14.942Z,83.00
2018-07-28T03:17:14.873Z,82.81
2018-07-28T03:18:14.837Z,82.90
2018-07-28T03:19:14.780Z,82.90
2018-07-28T03:20:14.739Z,82.52
2018-07-28T03:21:14.701Z,82.71
2018-07-28T03:22:14.657Z,83.34
2018-07-28T03:23:14.599Z,83.00
2018-07-28T03:24:14.559Z,83.29
2018-07-28T03:25:14.516Z,83.19
2018-07-28T03:26:14.448Z,83.29
2018-07-28T03:27:14.439Z,83.00
2018-07-28T03:28:14.382Z,83.29
2018-07-28T03:29:14.307Z,82.90
2018-07-28T03:30:14.275Z,83.19
2018-07-28T03:31:14.239Z,83.39
2018-07-28T03:32:14.189Z,83.00
2018-07-28T03:33:14.144Z,83.09
2018-07-28T03:34:14.100Z,83.19
2018-07-28T03:35:14.045Z,83.73
2018-07-28T03:36:14.000Z,83.44
2018-07-28T03:37:13.954Z,83.73
2018-07-28T03:38:13.917Z,84.21
2018-07-28T03:39:13.846Z,84.21
2018-07-28T03:40:13.829Z,84.11
2018-07-28T03:41:13.779Z,83.73
2018-07-28T03:42:13.727Z,84.50
2018-07-28T03:43:13.704Z,84.30
2018-07-28T03:44:13.633Z,84.50
2018-07-28T03:45:13.599Z,84.21
2018-07-28T03:46:13.553Z,84.21
2018-07-28T03:47:13.512Z,84.11
2018-07-28T03:48:13.441Z,84.21
2018-07-28T03:49:13.423Z,84.11
2018-07-28T03:50:13.363Z,84.40
2018-07-28T03:51:13.320Z,84.50
2018-07-28T03:52:13.268Z,84.21
2018-07-28T03:53:13.233Z,83.92
2018-07-28T03:54:13.200Z,84.78
2018-07-28T03:55:13.129Z,84.59
2018-07-28T03:56:13.093Z,84.50
2018-07-28T03:57:13.039Z,84.30
2018-07-28T03:58:13.001Z,84.01
2018-07-28T03:59:12.959Z,84.59
2018-07-28T04:00:12.946Z,84.11
2018-07-28T04:01:12.862Z,84.11
2018-07-28T04:02:12.807Z,84.50
2018-07-28T04:03:12.762Z,84.69
2018-07-28T04:04:12.727Z,84.88
2018-07-28T04:05:12.648Z,84.98
2018-07-28T04:06:12.631Z,84.88
2018-07-28T04:07:12.582Z,85.17
2018-07-28T04:08:12.539Z,85.07
2018-07-28T04:09:12.481Z,85.41
2018-07-28T04:10:12.451Z,85.80
2018-07-28T04:11:12.404Z,85.80
2018-07-28T04:12:12.355Z,85.65
2018-07-28T04:13:12.310Z,85.17
2018-07-28T04:14:12.259Z,85.17
2018-07-28T04:15:12.218Z,85.27
2018-07-28T04:16:12.171Z,85.17
2018-07-28T04:17:12.097Z,85.51
2018-07-28T04:18:12.076Z,85.55
2018-07-28T04:19:12.028Z,85.55
2018-07-28T04:20:11.982Z,85.80
2018-07-28T04:21:11.936Z,85.84
2018-07-28T04:22:11.887Z,85.94
2018-07-28T04:23:11.840Z,85.61
2018-07-28T04:24:11.797Z,85.75
2018-07-28T04:25:11.736Z,85.65
2018-07-28T04:26:11.726Z,85.41
2018-07-28T04:27:11.667Z,85.55
2018-07-28T04:28:11.615Z,85.27
2018-07-28T04:29:11.577Z,85.32
2018-07-28T04:30:11.526Z,85.61
2018-07-28T04:31:11.484Z,85.51
2018-07-28T04:32:11.425Z,85.89
2018-07-28T04:33:11.384Z,86.18
2018-07-28T04:34:11.339Z,86.28
2018-07-28T04:35:11.295Z,85.89
2018-07-28T04:36:11.248Z,85.80
2018-07-28T04:37:11.258Z,85.32
2018-07-28T04:38:11.154Z,86.09
2018-07-28T04:39:11.112Z,85.80
2018-07-28T04:40:11.039Z,86.09
2018-07-28T04:41:11.021Z,85.51
2018-07-28T04:42:10.953Z,85.71
2018-07-28T04:43:10.922Z,85.89
2018-07-28T04:44:10.871Z,85.80
2018-07-28T04:45:10.841Z,85.80
2018-07-28T04:46:10.775Z,86.09
2018-07-28T04:47:10.741Z,85.55
2018-07-28T04:48:10.694Z,85.32
2018-07-28T04:49:10.650Z,85.65
2018-07-28T04:50:10.608Z,85.32
2018-07-28T04:51:10.598Z,85.51
2018-07-28T04:52:10.516Z,85.41
2018-07-28T04:53:10.470Z,85.27
2018-07-28T04:54:10.410Z,85.27
2018-07-28T04:55:10.360Z,85.07
2018-07-28T04:56:10.324Z,85.27
2018-07-28T04:57:10.273Z,85.36
2018-07-28T04:58:10.231Z,85.07
2018-07-28T04:59:10.196Z,85.84
2018-07-28T05:00:10.140Z,85.46
2018-07-28T05:01:10.097Z,85.27
2018-07-28T05:02:10.053Z,85.55
2018-07-28T05:03:10.011Z,86.09
2018-07-28T05:04:09.955Z,86.13
2018-07-28T05:05:09.929Z,85.32
2018-07-28T05:06:09.848Z,85.89
2018-07-28T05:07:09.845Z,85.13
2018-07-28T05:08:09.766Z,84.94
2018-07-28T05:09:09.719Z,85.03
2018-07-28T05:10:09.675Z,84.17
2018-07-28T05:11:09.636Z,84.07
2018-07-28T05:12:09.585Z,83.97
2018-07-28T05:13:09.558Z,84.45
2018-07-28T05:14:09.497Z,85.03
2018-07-28T05:15:09.466Z,84.84
2018-07-28T05:16:09.413Z,85.71
2018-07-28T05:17:09.370Z,86.05
2018-07-28T05:18:09.323Z,85.80
2018-07-28T05:19:09.249Z,86.09
2018-07-28T05:20:09.213Z,85.89
2018-07-28T05:21:09.167Z,86.09
2018-07-28T05:22:09.129Z,86.28
2018-07-28T05:23:09.086Z,86.47
2018-07-28T05:24:09.028Z,86.09
2018-07-28T05:25:08.981Z,86.09
2018-07-28T05:26:08.935Z,85.80
2018-07-28T05:27:08.904Z,85.89
2018-07-28T05:28:08.844Z,85.99
2018-07-28T05:29:08.795Z,85.75
2018-07-28T05:30:08.765Z,85.66
2018-07-28T05:31:08.716Z,85.95
2018-07-28T05:32:08.721Z,86.24
2018-07-28T05:33:08.609Z,86.24
2018-07-28T05:34:08.574Z,86.24
2018-07-28T05:35:08.524Z,86.05
2018-07-28T05:36:08.476Z,86.43
2018-07-28T05:37:08.479Z,86.43
2018-07-28T05:38:08.398Z,86.81
2018-07-28T05:39:08.372Z,86.52
2018-07-28T05:40:08.296Z,85.85
2018-07-28T05:41:08.246Z,86.33
2018-07-28T05:42:08.201Z,85.75
2018-07-28T05:43:08.160Z,86.05
2018-07-28T05:44:08.110Z,86.24
2018-07-28T05:45:08.065Z,85.85
2018-07-28T05:46:08.021Z,85.75
2018-07-28T05:47:07.971Z,85.85
2018-07-28T05:48:07.917Z,85.66
2018-07-28T05:49:07.870Z,85.66
2018-07-28T05:50:07.941Z,85.66
2018-07-28T05:51:07.792Z,85.66
2018-07-28T05:52:07.731Z,86.05
2018-07-28T05:53:07.688Z,85.85
2018-07-28T05:54:07.662Z,85.75
2018-07-28T05:55:07.605Z,85.66
2018-07-28T05:56:07.563Z,85.75
2018-07-28T05:57:07.512Z,85.85
2018-07-28T05:58:07.457Z,85.28
2018-07-28T05:59:07.398Z,85.95
2018-07-28T06:00:07.361Z,86.33
2018-07-28T06:01:07.305Z,86.05
2018-07-28T06:02:07.318Z,85.85
2018-07-28T06:03:07.241Z,86.33
2018-07-28T06:04:07.185Z,85.85
2018-07-28T06:05:07.142Z,85.37
2018-07-28T06:06:07.077Z,85.47
2018-07-28T06:07:07.049Z,85.37
2018-07-28T06:08:06.991Z,85.57
2018-07-28T06:09:06.950Z,84.70
2018-07-28T06:10:06.897Z,84.60
2018-07-28T06:11:06.876Z,84.41
2018-07-28T06:12:06.808Z,84.41
2018-07-28T06:13:06.775Z,85.08
2018-07-28T06:14:06.742Z,84.99
2018-07-28T06:15:06.669Z,84.89
2018-07-28T06:16:06.602Z,84.51
2018-07-28T06:17:06.600Z,84.03
2018-07-28T06:18:06.543Z,84.22
2018-07-28T06:19:06.491Z,84.84
2018-07-28T06:20:06.448Z,84.60
2018-07-28T06:21:06.398Z,84.51
2018-07-28T06:22:06.360Z,84.89
2018-07-28T06:23:06.303Z,84.89
2018-07-28T06:24:06.273Z,84.70
2018-07-28T06:25:06.207Z,85.18
2018-07-28T06:26:06.189Z,85.08
2018-07-28T06:27:06.117Z,85.08
2018-07-28T06:28:06.065Z,84.99
2018-07-28T06:29:06.024Z,84.70
2018-07-28T06:30:05.991Z,84.89
2018-07-28T06:31:05.930Z,85.08
2018-07-28T06:32:05.886Z,85.57
2018-07-28T06:33:05.846Z,85.66
2018-07-28T06:34:05.798Z,85.47
2018-07-28T06:35:05.758Z,85.18
2018-07-28T06:36:05.699Z,85.57
2018-07-28T06:37:05.654Z,85.57
2018-07-28T06:38:05.601Z,84.70
2018-07-28T06:39:05.554Z,85.37
2018-07-28T06:40:05.527Z,85.57
2018-07-28T06:41:05.466Z,84.89
2018-07-28T06:42:05.420Z,85.08
2018-07-28T06:43:05.377Z,85.08
2018-07-28T06:44:05.325Z,85.14
2018-07-28T06:45:05.283Z,85.47
2018-07-28T06:46:05.229Z,85.18
2018-07-28T06:47:05.184Z,85.24
2018-07-28T06:48:05.130Z,85.42
2018-07-28T06:49:05.089Z,85.81
2018-07-28T06:50:05.033Z,85.62
2018-07-28T06:51:04.986Z,86.19
2018-07-28T06:52:04.959Z,86.29
2018-07-28T06:53:04.908Z,86.10
2018-07-28T06:54:04.857Z,86.48
2018-07-28T06:55:04.824Z,86.00
2018-07-28T06:56:04.771Z,86.10
2018-07-28T06:57:04.718Z,86.38
2018-07-28T06:58:04.678Z,86.58
2018-07-28T06:59:04.635Z,86.87
2018-07-28T07:00:04.591Z,86.48
2018-07-28T07:01:04.532Z,86.77
2018-07-28T07:02:04.487Z,86.58
2018-07-28T07:03:04.433Z,86.29
2018-07-28T07:04:04.393Z,86.68
2018-07-28T07:05:04.360Z,86.48
2018-07-28T07:06:04.295Z,86.77
2018-07-28T07:07:04.253Z,87.05
2018-07-28T07:08:04.219Z,86.87
2018-07-28T07:09:04.169Z,86.43
2018-07-28T07:10:04.128Z,86.24
2018-07-28T07:11:04.068Z,85.71
2018-07-28T07:12:04.029Z,86.24
2018-07-28T07:13:03.962Z,86.05
2018-07-28T07:14:03.939Z,86.19
2018-07-28T07:15:03.898Z,85.81
2018-07-28T07:16:03.836Z,86.19
2018-07-28T07:17:03.790Z,86.77
2018-07-28T07:18:03.742Z,86.96
2018-07-28T07:19:03.715Z,87.73
2018-07-28T07:20:03.662Z,87.54
2018-07-28T07:21:03.611Z,87.82
2018-07-28T07:22:03.570Z,87.73
2018-07-28T07:23:03.509Z,87.54
2018-07-28T07:24:03.467Z,87.19
2018-07-28T07:25:03.427Z,86.48
2018-07-28T07:26:03.388Z,86.81
2018-07-28T07:27:03.335Z,86.62
2018-07-28T07:28:03.290Z,86.62
2018-07-28T07:29:03.235Z,86.33
2018-07-28T07:30:03.197Z,86.48
2018-07-28T07:31:03.146Z,86.96
2018-07-28T07:32:03.103Z,86.87
2018-07-28T07:33:03.046Z,87.54
2018-07-28T07:34:03.006Z,87.82
2018-07-28T07:35:02.945Z,87.82
2018-07-28T07:36:02.966Z,87.73
2018-07-28T07:37:02.868Z,88.02
2018-07-28T07:38:02.862Z,87.63
2018-07-28T07:39:02.766Z,87.54
2018-07-28T07:40:02.719Z,87.54
2018-07-28T07:41:02.679Z,87.92
2018-07-28T07:42:02.635Z,88.02
2018-07-28T07:43:02.595Z,87.73
2018-07-28T07:44:02.541Z,88.02
2018-07-28T07:45:02.491Z,87.82
2018-07-28T07:46:02.439Z,87.92
2018-07-28T07:47:02.404Z,87.63
2018-07-28T07:48:02.338Z,87.73
2018-07-28T07:49:02.300Z,87.44
2018-07-28T07:50:02.254Z,86.96
2018-07-28T07:51:02.209Z,86.77
2018-07-28T07:52:02.164Z,86.38
2018-07-28T07:53:02.121Z,86.77
2018-07-28T07:54:02.201Z,86.58
2018-07-28T07:55:02.037Z,86.58
2018-07-28T07:56:01.985Z,86.58
2018-07-28T07:57:01.937Z,87.44
2018-07-28T07:58:01.890Z,87.54
2018-07-28T07:59:01.839Z,87.82
2018-07-28T08:00:01.794Z,87.73
2018-07-28T08:01:01.741Z,88.11
2018-07-28T08:02:01.705Z,87.35
2018-07-28T08:03:01.662Z,87.78
2018-07-28T08:04:01.582Z,87.49
2018-07-28T08:05:01.572Z,88.07
2018-07-28T08:06:01.508Z,88.07
2018-07-28T08:07:01.471Z,88.45
2018-07-28T08:08:01.427Z,88.17
2018-07-28T08:09:01.378Z,88.26
2018-07-28T08:10:01.329Z,88.26
2018-07-28T08:11:01.283Z,88.07
2018-07-28T08:12:01.224Z,88.11
2018-07-28T08:13:01.190Z,87.49
2018-07-28T08:14:01.135Z,87.73
2018-07-28T08:15:01.097Z,87.82
2018-07-28T08:16:01.042Z,87.63
2018-07-28T08:17:00.980Z,87.63
2018-07-28T08:18:00.957Z,87.25
2018-07-28T08:19:00.910Z,87.92
2018-07-28T08:20:00.879Z,87.68
2018-07-28T08:21:00.860Z,88.11
2018-07-28T08:22:00.768Z,88.07
2018-07-28T08:23:00.740Z,88.45
2018-07-28T08:24:00.656Z,88.45
2018-07-28T08:25:00.603Z,88.35
2018-07-28T08:26:00.584Z,88.17
2018-07-28T08:27:00.554Z,88.65
2018-07-28T08:28:00.492Z,88.17
2018-07-28T08:29:00.459Z,87.68
2018-07-28T08:30:00.393Z,87.59
2018-07-28T08:31:00.355Z,88.02
2018-07-28T08:32:00.299Z,87.88
2018-07-28T08:33:00.248Z,87.59
2018-07-28T08:34:00.203Z,88.35
2018-07-28T08:35:00.147Z,88.35
2018-07-28T08:36:00.103Z,88.07
2018-07-28T08:37:00.068Z,88.07
2018-07-28T08:38:00.021Z,88.07
2018-07-28T08:38:59.980Z,89.03
2018-07-28T08:40:00.040Z,88.55
2018-07-28T08:40:59.896Z,88.93
2018-07-28T08:41:59.836Z,89.22
2018-07-28T08:42:59.781Z,89.12
2018-07-28T08:43:59.747Z,89.22
2018-07-28T08:44:59.694Z,89.61
2018-07-28T08:45:59.657Z,89.12
2018-07-28T08:46:59.601Z,89.03
2018-07-28T08:47:59.572Z,88.65
2018-07-28T08:48:59.565Z,88.65
2018-07-28T08:49:59.454Z,88.07
2018-07-28T08:50:59.427Z,88.74
2018-07-28T08:51:59.363Z,88.45
2018-07-28T08:52:59.334Z,88.45
2018-07-28T08:53:59.276Z,88.45
2018-07-28T08:54:59.234Z,88.07
2018-07-28T08:55:59.183Z,88.26
2018-07-28T08:56:59.144Z,88.45
2018-07-28T08:57:59.081Z,88.93
2018-07-28T08:58:59.038Z,88.74
2018-07-28T08:59:58.989Z,88.93
2018-07-28T09:00:58.955Z,88.84
2018-07-28T09:01:58.903Z,89.12
2018-07-28T09:02:58.847Z,89.41
2018-07-28T09:03:58.805Z,89.32
2018-07-28T09:04:58.762Z,89.32
2018-07-28T09:05:58.759Z,89.03
2018-07-28T09:06:58.660Z,90.08
2018-07-28T09:07:58.622Z,90.33
2018-07-28T09:08:58.550Z,89.85
2018-07-28T09:09:58.528Z,90.37
2018-07-28T09:10:58.480Z,90.08
2018-07-28T09:11:58.426Z,90.08
2018-07-28T09:12:58.385Z,90.18
2018-07-28T09:13:58.352Z,90.37
2018-07-28T09:14:58.293Z,90.18
2018-07-28T09:15:58.243Z,90.61
2018-07-28T09:16:58.184Z,90.47
2018-07-28T09:17:58.163Z,90.66
2018-07-28T09:18:58.107Z,90.66
2018-07-28T09:19:58.052Z,90.18
2018-07-28T09:20:58.029Z,89.99
2018-07-28T09:21:57.965Z,89.41
2018-07-28T09:22:57.923Z,90.18
2018-07-28T09:23:57.859Z,89.99
2018-07-28T09:24:57.817Z,89.89
2018-07-28T09:25:57.762Z,89.99
2018-07-28T09:26:57.737Z,89.89
2018-07-28T09:27:57.680Z,89.79
2018-07-28T09:28:57.639Z,89.99
2018-07-28T09:29:57.596Z,90.18
2018-07-28T09:30:57.544Z,90.47
2018-07-28T09:31:57.494Z,90.66
2018-07-28T09:32:57.455Z,90.47
2018-07-28T09:33:57.410Z,90.42
2018-07-28T09:34:57.362Z,90.66
2018-07-28T09:35:57.312Z,90.37
2018-07-28T09:36:57.298Z,90.47
2018-07-28T09:37:57.233Z,90.85
2018-07-28T09:38:57.144Z,90.90
2018-07-28T09:39:57.119Z,90.75
2018-07-28T09:40:57.075Z,90.90
2018-07-28T09:41:57.022Z,90.71
2018-07-28T09:42:57.000Z,91.19
2018-07-28T09:43:56.937Z,91.38
2018-07-28T09:44:56.886Z,91.57
2018-07-28T09:45:56.846Z,91.77
2018-07-28T09:46:56.818Z,91.57
2018-07-28T09:47:56.748Z,91.28
2018-07-28T09:48:56.695Z,91.28
2018-07-28T09:49:56.673Z,92.24
2018-07-28T09:50:56.603Z,91.86
2018-07-28T09:51:56.580Z,91.28
2018-07-28T09:52:56.509Z,91.28
2018-07-28T09:53:56.477Z,91.19
2018-07-28T09:54:56.424Z,91.67
2018-07-28T09:55:56.382Z,91.05
2018-07-28T09:56:56.343Z,91.72
2018-07-28T09:57:56.330Z,90.95
2018-07-28T09:58:56.232Z,90.85
2018-07-28T09:59:56.190Z,90.85
2018-07-28T10:00:56.140Z,90.95
2018-07-28T10:01:56.092Z,90.85
2018-07-28T10:02:56.040Z,91.52
2018-07-28T10:03:56.004Z,91.72
2018-07-28T10:04:55.963Z,90.75
2018-07-28T10:05:55.909Z,90.85
2018-07-28T10:06:55.859Z,91.24
2018-07-28T10:07:55.806Z,91.52
2018-07-28T10:08:55.762Z,91.33
2018-07-28T10:09:55.707Z,91.72
2018-07-28T10:10:55.665Z,91.52
2018-07-28T10:11:55.628Z,91.05
2018-07-28T10:12:55.581Z,90.85
2018-07-28T10:13:55.535Z,91.14
2018-07-28T10:14:55.481Z,90.66
2018-07-28T10:15:55.434Z,91.24
2018-07-28T10:16:55.394Z,91.72
2018-07-28T10:17:55.354Z,90.66
2018-07-28T10:18:55.294Z,90.85
2018-07-28T10:19:55.248Z,90.75
2018-07-28T10:20:55.213Z,90.75
2018-07-28T10:21:55.147Z,90.75
2018-07-28T10:22:55.162Z,90.85
2018-07-28T10:23:55.069Z,90.95
2018-07-28T10:24:55.038Z,90.85
2018-07-28T10:25:54.975Z,90.75
2018-07-28T10:26:54.935Z,90.56
2018-07-28T10:27:54.876Z,90.85
2018-07-28T10:28:54.835Z,90.56
2018-07-28T10:29:54.784Z,89.99
2018-07-28T10:30:54.742Z,90.28
2018-07-28T10:31:54.708Z,90.47
2018-07-28T10:32:54.642Z,90.37
2018-07-28T10:33:54.607Z,90.28
2018-07-28T10:34:54.555Z,90.75
2018-07-28T10:35:54.489Z,90.18
2018-07-28T10:36:54.465Z,88.59
2018-07-28T10:37:54.417Z,88.79
2018-07-28T10:38:54.377Z,88.49
2018-07-28T10:39:54.324Z,88.79
2018-07-28T10:40:54.287Z,88.35
2018-07-28T10:41:54.242Z,86.91
2018-07-28T10:42:54.191Z,85.99
2018-07-28T10:43:54.154Z,84.45
2018-07-28T10:44:54.114Z,83.44
2018-07-28T10:45:54.053Z,83.15
2018-07-28T10:46:54.023Z,82.42
2018-07-28T10:47:53.982Z,81.94
2018-07-28T10:48:53.932Z,81.46
2018-07-28T10:49:53.897Z,81.17
2018-07-28T10:50:53.844Z,80.21
2018-07-28T10:51:53.862Z,79.86
2018-07-28T10:52:53.771Z,78.71
2018-07-28T10:53:53.726Z,79.03
2018-07-28T10:54:53.681Z,78.08
2018-07-28T10:55:53.628Z,77.06
2018-07-28T10:56:53.621Z,76.23
2018-07-28T10:57:53.571Z,75.26
2018-07-28T10:58:53.523Z,75.42
2018-07-28T10:59:53.485Z,76.09
2018-07-28T11:00:53.450Z,75.26
2018-07-28T11:01:53.415Z,73.57
2018-07-28T11:02:53.378Z,72.21
2018-07-28T11:03:53.319Z,71.54
2018-07-28T11:04:53.294Z,71.28
2018-07-28T11:05:53.260Z,70.80
2018-07-28T11:06:53.230Z,70.61
2018-07-28T11:07:53.194Z,70.06
2018-07-28T11:08:53.147Z,68.91
2018-07-28T11:09:53.103Z,69.49
2018-07-28T11:10:53.086Z,68.36
2018-07-28T11:11:53.049Z,68.91
2018-07-28T11:12:53.013Z,68.65
2018-07-28T11:13:52.975Z,67.78
2018-07-28T11:14:52.941Z,67.62
2018-07-28T11:15:52.913Z,67.49
2018-07-28T11:16:52.852Z,67.52
2018-07-28T11:17:52.824Z,66.24
2018-07-28T11:18:52.825Z,66.63
2018-07-28T11:19:52.755Z,67.59
2018-07-28T11:20:52.720Z,67.59
2018-07-28T11:21:52.683Z,67.78
2018-07-28T11:22:52.626Z,67.69
2018-07-28T11:23:52.597Z,68.91
2018-07-28T11:24:52.564Z,69.20
2018-07-28T11:25:52.541Z,68.97
2018-07-28T11:26:52.492Z,69.07
2018-07-28T11:27:52.454Z,69.16
2018-07-28T11:28:52.404Z,70.00
2018-07-28T11:29:52.371Z,70.03
2018-07-28T11:30:52.319Z,69.93
2018-07-28T11:31:52.305Z,70.19
2018-07-28T11:32:52.258Z,70.09
2018-07-28T11:33:52.199Z,71.44
2018-07-28T11:34:52.156Z,71.44
2018-07-28T11:35:52.112Z,71.34
2018-07-28T11:36:52.087Z,72.18
2018-07-28T11:37:52.079Z,72.66
2018-07-28T11:38:51.982Z,72.37
2018-07-28T11:39:51.952Z,72.75
2018-07-28T11:40:51.887Z,72.37
2018-07-28T11:41:51.855Z,72.27
2018-07-28T11:42:51.820Z,71.98
2018-07-28T11:43:51.771Z,72.85
2018-07-28T11:44:51.740Z,73.43
2018-07-28T11:45:51.698Z,74.01
2018-07-28T11:46:51.648Z,74.10
2018-07-28T11:47:51.609Z,74.01
2018-07-28T11:48:51.567Z,73.53
2018-07-28T11:49:51.519Z,72.37
2018-07-28T11:50:51.492Z,72.85
2018-07-28T11:51:51.417Z,73.53
2018-07-28T11:52:51.380Z,73.24
2018-07-28T11:53:51.351Z,72.85
2018-07-28T11:54:51.293Z,72.27
2018-07-28T11:55:51.257Z,72.18
2018-07-28T11:56:51.226Z,72.95
2018-07-28T11:57:51.161Z,72.56
2018-07-28T11:58:51.142Z,72.47
2018-07-28T11:59:51.057Z,71.79
2018-07-28T12:00:51.043Z,71.50
2018-07-28T12:01:51.054Z,70.83
2018-07-28T12:02:50.955Z,70.09
2018-07-28T12:03:50.894Z,70.00
2018-07-28T12:04:50.857Z,70.92
2018-07-28T12:05:50.811Z,71.41
2018-07-28T12:06:50.782Z,71.12
2018-07-28T12:07:50.735Z,71.54
2018-07-28T12:08:50.682Z,71.92
2018-07-28T12:09:50.645Z,71.92
2018-07-28T12:10:50.592Z,71.44
2018-07-28T12:11:50.552Z,71.31
2018-07-28T12:12:50.690Z,71.31
2018-07-28T12:13:50.464Z,72.18
2018-07-28T12:14:50.432Z,71.64
2018-07-28T12:15:50.372Z,70.96
2018-07-28T12:16:50.340Z,70.09
2018-07-28T12:17:50.302Z,69.61
2018-07-28T12:18:50.248Z,70.38
2018-07-28T12:19:50.206Z,70.19
2018-07-28T12:20:50.160Z,70.00
2018-07-28T12:21:50.109Z,69.61
2018-07-28T12:22:50.065Z,68.65
2018-07-28T12:23:50.083Z,68.65
2018-07-28T12:24:49.976Z,69.32
2018-07-28T12:25:49.917Z,69.71
2018-07-28T12:26:49.892Z,69.23
2018-07-28T12:27:49.853Z,69.03
2018-07-28T12:28:49.816Z,68.16
2018-07-28T12:29:49.749Z,68.74
2018-07-28T12:30:49.722Z,68.55
2018-07-28T12:31:49.674Z,68.29
2018-07-28T12:32:49.627Z,68.10
2018-07-28T12:33:49.562Z,68.77
2018-07-28T12:34:49.553Z,69.64
2018-07-28T12:35:49.494Z,70.13
2018-07-28T12:36:49.459Z,69.64
2018-07-28T12:37:49.392Z,68.39
2018-07-28T12:38:49.364Z,67.52
2018-07-28T12:39:49.311Z,68.49
2018-07-28T12:40:49.301Z,67.71
2018-07-28T12:41:49.244Z,68.29
2018-07-28T12:42:49.196Z,67.23
2018-07-28T12:43:49.136Z,66.94
2018-07-28T12:44:49.103Z,66.94
2018-07-28T12:45:49.073Z,66.85
2018-07-28T12:46:49.019Z,67.52
2018-07-28T12:47:48.984Z,67.52
2018-07-28T12:48:48.933Z,66.56
2018-07-28T12:49:48.894Z,65.98
2018-07-28T12:50:48.838Z,65.20
2018-07-28T12:51:48.789Z,65.34